createdAt,value
2022-09-12T00:02:32.080Z,100101.06
2022-09-12T00:07:34.139Z,100094.84
2022-09-12T00:12:35.676Z,100102.06
2022-09-12T00:17:38.946Z,100100.28
2022-09-12T00:22:40.553Z,100097.03
2022-09-12T00:27:42.125Z,100100.75
2022-09-12T00:32:44.509Z,100103.06
2022-09-12T00:37:46.728Z,100093.88
2022-09-12T00:42:48.253Z,100099.34
2022-09-12T00:47:49.926Z,100091.56
2022-09-12T00:53:00.201Z,100087.31
2022-09-12T00:58:23.348Z,100084.56
2022-09-12T01:03:26.234Z,100079.06
2022-09-12T01:08:28.665Z,100078.97
2022-09-12T01:13:31.839Z,100070.44
2022-09-12T01:18:50.355Z,100075.22
2022-09-12T01:24:33.589Z,100071.41
2022-09-12T01:29:59.871Z,100081.41
2022-09-12T01:35:21.866Z,100076.78
2022-09-12T01:40:31.543Z,100078.47
2022-09-12T01:45:45.405Z,100069.03
2022-09-12T01:50:56.621Z,100066.78
2022-09-12T01:56:07.948Z,100060.16
2022-09-12T02:01:15.718Z,100058.63
2022-09-12T02:06:47.387Z,100063.56
2022-09-12T02:11:53.349Z,100063.69
2022-09-12T02:17:01.428Z,100057.69
2022-09-12T02:22:04.874Z,100055.25
2022-09-12T02:27:13.240Z,100054.53
2022-09-12T02:32:18.054Z,100052.81
2022-09-12T02:37:38.630Z,100056.25
2022-09-12T02:42:40.502Z,100062.25
2022-09-12T02:47:46.944Z,100051.19
2022-09-12T02:52:48.772Z,100047.38
2022-09-12T02:57:50.291Z,100048.00
2022-09-12T03:03:43.155Z,100053.31
2022-09-12T03:09:14.536Z,100050.84
2022-09-12T03:14:31.823Z,100048.94
2022-09-12T03:19:41.531Z,100048.75
2022-09-12T03:24:56.705Z,100047.47
2022-09-12T03:30:00.149Z,100045.03
2022-09-12T03:35:01.792Z,100051.31
2022-09-12T03:40:05.854Z,100053.09
2022-09-12T03:45:09.201Z,100037.88
2022-09-12T03:50:11.343Z,100041.75
2022-09-12T03:55:12.926Z,100046.56
2022-09-12T04:00:19.590Z,100054.88
2022-09-12T04:05:21.502Z,100050.94
2022-09-12T04:10:23.064Z,100059.75
2022-09-12T04:15:24.618Z,100062.47
2022-09-12T04:20:26.195Z,100049.50
2022-09-12T04:25:28.358Z,100055.44
2022-09-12T04:30:31.746Z,100053.09
2022-09-12T04:35:35.763Z,100053.50
2022-09-12T04:40:38.000Z,100057.13
2022-09-12T04:45:39.801Z,100065.88
2022-09-12T04:50:41.385Z,100064.91
2022-09-12T04:55:43.466Z,100065.00
2022-09-12T05:00:45.048Z,100077.38
2022-09-12T05:05:46.576Z,100068.41
2022-09-12T05:10:48.185Z,100079.63
2022-09-12T05:15:59.684Z,100081.63
2022-09-12T05:21:03.830Z,100073.56
2022-09-12T05:26:07.067Z,100092.19
2022-09-12T05:31:21.358Z,100084.09
2022-09-12T05:36:29.333Z,100085.63
2022-09-12T05:41:33.618Z,100094.13
2022-09-12T05:46:40.262Z,100096.22
2022-09-12T05:51:45.715Z,100099.25
2022-09-12T05:56:48.433Z,100107.75
2022-09-12T06:01:50.161Z,100106.69
2022-09-12T06:06:51.936Z,100095.16
2022-09-12T06:11:53.978Z,100103.25
2022-09-12T06:16:55.679Z,100110.56
2022-09-12T06:21:57.411Z,100113.97
2022-09-12T06:26:59.001Z,100110.63
2022-09-12T06:32:00.769Z,100116.81
2022-09-12T06:37:04.011Z,100112.22
2022-09-12T06:42:05.818Z,100112.72
2022-09-12T06:47:12.063Z,100116.91
2022-09-12T06:52:13.694Z,100115.44
2022-09-12T06:57:15.227Z,100122.16
2022-09-12T07:02:16.849Z,100126.50
2022-09-12T07:07:18.538Z,100126.75
2022-09-12T07:12:20.123Z,100129.75
2022-09-12T07:17:21.671Z,100130.84
2022-09-12T07:22:23.240Z,100139.13
2022-09-12T07:27:24.802Z,100148.28
2022-09-12T07:32:26.676Z,100144.22
2022-09-12T07:37:31.517Z,100145.28
2022-09-12T07:42:33.051Z,100147.63
2022-09-12T07:47:34.610Z,100141.50
2022-09-12T07:52:36.385Z,100142.94
2022-09-12T07:57:38.019Z,100139.94
2022-09-12T08:02:39.823Z,100137.59
2022-09-12T08:07:41.457Z,100148.91
2022-09-12T08:12:42.947Z,100141.50
2022-09-12T08:17:44.731Z,100148.41
2022-09-12T08:22:46.295Z,100149.09
2022-09-12T08:27:48.379Z,100155.78
2022-09-12T08:32:49.924Z,100151.28
2022-09-12T08:37:51.445Z,100151.59
2022-09-12T08:43:10.216Z,100149.63
2022-09-12T08:48:13.323Z,100152.50
2022-09-12T08:53:21.489Z,100152.00
2022-09-12T08:58:25.183Z,100144.16
2022-09-12T09:03:47.417Z,100141.47
2022-09-12T09:09:08.366Z,100143.47
2022-09-12T09:14:49.504Z,100142.69
2022-09-12T09:19:58.366Z,100138.91
2022-09-12T09:25:05.153Z,100141.28
2022-09-12T09:30:15.393Z,100135.56
2022-09-12T09:35:36.250Z,100128.41
2022-09-12T09:40:52.863Z,100121.75
2022-09-12T09:45:56.283Z,100136.25
2022-09-12T09:51:00.475Z,100131.75
2022-09-12T09:56:10.303Z,100127.44
2022-09-12T10:01:16.081Z,100123.81
2022-09-12T10:06:23.600Z,100117.72
2022-09-12T10:11:28.475Z,100110.34
2022-09-12T10:16:32.856Z,100115.34
2022-09-12T10:21:52.070Z,100116.03
2022-09-12T10:27:11.737Z,100111.59
2022-09-12T10:32:30.374Z,100105.47
2022-09-12T10:37:39.528Z,100109.16
2022-09-12T10:42:52.900Z,100106.94
2022-09-12T10:47:58.465Z,100099.59
2022-09-12T10:53:25.242Z,100090.16
2022-09-12T10:58:53.740Z,100079.44
2022-09-12T11:04:26.159Z,100069.34
2022-09-12T11:09:49.072Z,100069.34
2022-09-12T11:15:05.257Z,100069.34
2022-09-12T11:20:45.018Z,100076.50
2022-09-12T11:26:20.210Z,100066.78
2022-09-12T11:31:43.829Z,100069.63
2022-09-12T11:37:17.941Z,100068.13
2022-09-12T11:42:29.439Z,100075.16
2022-09-12T11:47:34.912Z,100067.56
2022-09-12T11:52:38.770Z,100075.63
2022-09-12T11:57:59.023Z,100063.34
2022-09-12T12:03:31.555Z,100061.09
2022-09-12T12:08:40.110Z,100063.22
2022-09-12T12:13:47.578Z,100071.44
2022-09-12T12:18:56.347Z,100073.13
2022-09-12T12:24:09.908Z,100059.25
2022-09-12T12:29:19.480Z,100051.59
2022-09-12T12:34:47.744Z,100047.91
2022-09-12T12:39:50.280Z,100045.06
2022-09-12T12:44:51.873Z,100040.06
2022-09-12T12:49:58.168Z,100039.53
2022-09-12T12:55:04.176Z,100032.59
2022-09-12T13:00:25.526Z,100027.88
2022-09-12T13:05:29.420Z,100014.00
2022-09-12T13:10:31.778Z,100000.66
2022-09-12T13:15:36.468Z,99996.06
2022-09-12T13:20:47.944Z,99994.50
2022-09-12T13:25:55.578Z,99996.38
2022-09-12T13:31:00.407Z,99996.06
2022-09-12T13:36:20.510Z,99984.50
2022-09-12T13:41:40.264Z,99986.38
2022-09-12T13:46:42.645Z,99989.28
2022-09-12T13:51:44.381Z,99983.44
2022-09-12T13:56:49.952Z,99981.94
2022-09-12T14:01:51.908Z,99979.34
2022-09-12T14:06:53.829Z,99977.94
2022-09-12T14:11:56.577Z,99979.28
2022-09-12T14:16:59.195Z,99967.66
2022-09-12T14:22:01.915Z,99969.34
2022-09-12T14:27:04.939Z,99965.59
2022-09-12T14:32:21.490Z,99964.06
2022-09-12T14:37:25.238Z,99970.34
2022-09-12T14:42:31.390Z,99950.31
2022-09-12T14:47:38.151Z,99956.09
2022-09-12T14:52:40.149Z,99955.22
2022-09-12T14:57:44.421Z,99946.44
2022-09-12T15:02:47.640Z,99947.91
2022-09-12T15:07:59.500Z,99942.09
2022-09-12T15:13:10.887Z,99941.22
2022-09-12T15:18:13.789Z,99930.41
2022-09-12T15:23:27.182Z,99935.41
2022-09-12T15:28:30.682Z,99929.72
2022-09-12T15:33:32.391Z,99934.22
2022-09-12T15:38:34.100Z,99924.28
2022-09-12T15:43:35.871Z,99930.03
2022-09-12T15:48:37.905Z,99930.91
2022-09-12T15:53:39.767Z,99927.03
2022-09-12T15:58:57.298Z,99931.31
2022-09-12T16:04:03.200Z,99941.69
2022-09-12T16:09:04.898Z,99932.09
2022-09-12T16:14:06.670Z,99928.25
2022-09-12T16:19:12.503Z,99918.78
2022-09-12T16:24:14.174Z,99912.16
2022-09-12T16:29:15.896Z,99912.38
2022-09-12T16:34:17.500Z,99908.66
2022-09-12T16:39:19.138Z,99902.91
2022-09-12T16:44:20.864Z,99904.38
2022-09-12T16:49:22.483Z,99894.25
2022-09-12T16:54:24.185Z,99896.75
2022-09-12T16:59:25.841Z,99887.84
2022-09-12T17:04:27.613Z,99884.63
2022-09-12T17:09:29.469Z,99880.53
2022-09-12T17:14:31.053Z,99874.13
2022-09-12T17:19:33.086Z,99877.44
2022-09-12T17:24:35.257Z,99877.88
2022-09-12T17:29:38.571Z,99874.94
2022-09-12T17:34:40.291Z,99880.72
2022-09-12T17:39:42.145Z,99869.72
2022-09-12T17:44:43.938Z,99871.38
2022-09-12T17:49:45.718Z,99876.59
2022-09-12T17:54:47.334Z,99873.94
2022-09-12T17:59:49.061Z,99880.31
2022-09-12T18:04:50.974Z,99875.84
2022-09-12T18:09:53.094Z,99882.47
2022-09-12T18:14:54.656Z,99874.09
2022-09-12T18:19:56.298Z,99880.81
2022-09-12T18:24:57.976Z,99880.53
2022-09-12T18:30:20.163Z,99883.88
2022-09-12T18:35:21.443Z,99877.97
2022-09-12T18:40:23.189Z,99883.28
2022-09-12T18:45:24.824Z,99884.09
2022-09-12T18:50:26.456Z,99883.50
2022-09-12T18:55:28.028Z,99883.44
2022-09-12T19:00:29.669Z,99884.72
2022-09-12T19:05:31.776Z,99890.53
2022-09-12T19:10:33.432Z,99879.84
2022-09-12T19:15:39.732Z,99872.94
2022-09-12T19:20:41.347Z,99876.88
2022-09-12T19:25:43.036Z,99877.28
2022-09-12T19:30:47.938Z,99867.97
2022-09-12T19:35:50.365Z,99870.44
2022-09-12T19:40:59.908Z,99868.72
2022-09-12T19:46:02.053Z,99872.00
2022-09-12T19:51:04.412Z,99860.34
2022-09-12T19:56:07.106Z,99857.94
2022-09-12T20:01:14.458Z,99852.06
2022-09-12T20:06:18.031Z,99851.09
2022-09-12T20:11:21.760Z,99851.41
2022-09-12T20:16:26.459Z,99853.91
2022-09-12T20:21:31.857Z,99853.69
2022-09-12T20:26:34.357Z,99851.81
2022-09-12T20:31:37.968Z,99852.97
2022-09-12T20:36:39.611Z,99845.53
2022-09-12T20:41:41.198Z,99844.53
2022-09-12T20:46:43.086Z,99846.72
2022-09-12T20:51:44.972Z,99838.34
2022-09-12T20:56:46.463Z,99835.66
2022-09-12T21:01:48.228Z,99844.03
2022-09-12T21:06:50.366Z,99839.50
2022-09-12T21:11:51.921Z,99829.50
2022-09-12T21:16:53.701Z,99826.47
2022-09-12T21:21:55.243Z,99826.25
2022-09-12T21:26:58.966Z,99824.38
2022-09-12T21:32:03.888Z,99828.06
2022-09-12T21:37:05.449Z,99825.97
2022-09-12T21:42:07.103Z,99815.88
2022-09-12T21:47:09.253Z,99813.66
2022-09-12T21:52:13.854Z,99804.69
2022-09-12T21:57:15.668Z,99805.56
2022-09-12T22:02:17.233Z,99803.44
2022-09-12T22:07:19.404Z,99803.84
2022-09-12T22:12:21.452Z,99789.72
2022-09-12T22:17:23.592Z,99783.69
2022-09-12T22:22:44.119Z,99782.38
2022-09-12T22:27:45.654Z,99785.22
2022-09-12T22:32:51.467Z,99785.88
2022-09-12T22:37:53.280Z,99778.16
2022-09-12T22:42:55.022Z,99774.25
2022-09-12T22:48:00.600Z,99758.69
2022-09-12T22:53:02.655Z,99747.66
2022-09-12T22:58:04.779Z,99746.72
2022-09-12T23:03:06.367Z,99740.16
2022-09-12T23:08:08.056Z,99738.22
2022-09-12T23:13:09.771Z,99726.25
2022-09-12T23:18:11.298Z,99731.72
2022-09-12T23:23:12.849Z,99728.63
2022-09-12T23:28:14.680Z,99718.38
2022-09-12T23:33:16.486Z,99716.03
2022-09-12T23:38:18.038Z,99713.84
2022-09-12T23:43:19.849Z,99712.13
2022-09-12T23:48:21.429Z,99701.50
2022-09-12T23:53:23.413Z,99705.59
2022-09-12T23:58:25.621Z,99692.41
